Time;durP1;ratioP1;P1;durP2;ratioP2;P2;SDS_P1;SDS_P2;PMS_P1;PMS_P2;Temp;Humidity;BMP_temperature;BMP_pressure;BME280_temperature;BME280_humidity;BME280_pressure;Samples;Min_cycle;Max_cycle;Signal;HPM_P1;HPM_P2
2021/04/07 00:00:39;;;;;;;3.70;3.40;;;3.60;99.90;;;;;;5018673;28;20207;-76
2021/04/07 00:03:07;;;;;;;3.73;3.53;;;3.50;99.90;;;;;;5022847;28;20246;-76
2021/04/07 00:05:38;;;;;;;5.57;3.80;;;3.50;99.90;;;;;;5021098;28;20523;-76
2021/04/07 00:08:05;;;;;;;6.70;4.20;;;3.50;99.90;;;;;;5019637;28;20439;-75
2021/04/07 00:10:33;;;;;;;4.67;3.67;;;3.40;99.90;;;;;;5016015;28;20454;-76
2021/04/07 00:12:59;;;;;;;4.13;3.73;;;3.40;99.90;;;;;;5019406;28;20438;-76
2021/04/07 00:15:28;;;;;;;3.97;3.70;;;3.40;99.90;;;;;;5015112;28;20442;-76
2021/04/07 00:17:54;;;;;;;3.80;3.50;;;3.30;99.90;;;;;;5016934;28;21090;-75
2021/04/07 00:20:22;;;;;;;3.90;3.60;;;3.30;99.90;;;;;;5014864;28;20480;-75
2021/04/07 00:22:49;;;;;;;4.20;3.77;;;3.30;99.90;;;;;;5016793;28;20431;-75
2021/04/07 00:25:16;;;;;;;3.93;3.63;;;3.30;99.90;;;;;;5019919;28;20811;-76
2021/04/07 00:27:44;;;;;;;7.30;3.83;;;3.30;99.90;;;;;;5018333;28;20973;-75
2021/04/07 00:30:11;;;;;;;5.80;3.67;;;3.30;99.90;;;;;;5017120;28;20474;-76
2021/04/07 00:32:37;;;;;;;4.20;3.90;;;3.20;99.90;;;;;;5021799;28;20509;-75
2021/04/07 00:35:04;;;;;;;5.40;4.23;;;3.20;99.90;;;;;;5018835;28;20533;-75
2021/04/07 00:37:30;;;;;;;6.60;4.13;;;3.10;99.90;;;;;;5017543;28;20660;-76
2021/04/07 00:39:55;;;;;;;4.83;4.30;;;3.20;99.90;;;;;;5017294;28;20586;-75
2021/04/07 00:42:22;;;;;;;4.40;4.10;;;3.20;99.90;;;;;;5022643;28;20287;-75
2021/04/07 00:44:48;;;;;;;4.47;4.00;;;3.10;99.90;;;;;;5021117;28;20234;-75
2021/04/07 00:47:19;;;;;;;5.67;4.33;;;3.10;99.90;;;;;;5020827;28;20469;-75
2021/04/07 00:49:45;;;;;;;5.33;4.83;;;3.10;99.90;;;;;;5021129;28;20481;-76
2021/04/07 00:52:10;;;;;;;4.53;4.13;;;3.10;99.90;;;;;;5020780;28;20963;-74
2021/04/07 00:54:37;;;;;;;5.07;4.47;;;3.10;99.90;;;;;;5020460;28;20189;-74
2021/04/07 00:57:03;;;;;;;4.40;4.10;;;3.10;99.90;;;;;;5021317;28;20741;-74
2021/04/07 00:59:28;;;;;;;4.60;4.20;;;3.10;99.90;;;;;;5021322;28;20438;-75
2021/04/07 01:01:55;;;;;;;4.57;4.10;;;3.00;99.90;;;;;;5021887;28;20194;-75
2021/04/07 01:04:23;;;;;;;7.23;4.87;;;3.00;99.90;;;;;;5020073;28;20191;-75
2021/04/07 01:06:49;;;;;;;4.10;3.80;;;3.10;99.90;;;;;;5020003;28;20506;-75
2021/04/07 01:09:15;;;;;;;4.33;4.03;;;3.10;99.90;;;;;;5020285;28;20438;-75
2021/04/07 01:11:40;;;;;;;12.03;4.83;;;3.00;99.90;;;;;;5022414;28;20431;-75
2021/04/07 01:14:06;;;;;;;6.00;5.50;;;3.00;99.90;;;;;;5019776;28;20721;-75
2021/04/07 01:16:33;;;;;;;9.40;5.23;;;3.00;99.90;;;;;;5021454;28;20309;-75
2021/04/07 01:18:58;;;;;;;5.20;4.80;;;3.00;99.90;;;;;;5017751;28;20195;-75
2021/04/07 01:21:24;;;;;;;5.97;4.67;;;3.00;99.90;;;;;;5022092;28;20455;-75
2021/04/07 01:23:50;;;;;;;5.13;4.63;;;2.90;99.90;;;;;;5020285;28;20308;-75
2021/04/07 01:26:16;;;;;;;5.33;4.83;;;3.00;99.90;;;;;;5021552;28;20250;-75
2021/04/07 01:28:43;;;;;;;7.70;4.40;;;3.00;99.90;;;;;;5019893;28;20433;-75
2021/04/07 01:31:09;;;;;;;4.87;4.37;;;2.90;99.90;;;;;;5020306;28;20499;-75
2021/04/07 01:33:36;;;;;;;6.07;5.47;;;2.90;99.90;;;;;;5019600;28;20442;-75
2021/04/07 01:36:02;;;;;;;5.40;4.90;;;2.80;99.90;;;;;;5019978;28;20836;-74
2021/04/07 01:38:28;;;;;;;5.33;4.90;;;2.80;99.90;;;;;;5020984;28;20438;-74
2021/04/07 01:40:55;;;;;;;7.80;4.70;;;2.80;99.90;;;;;;5019387;28;20449;-74
2021/04/07 01:43:22;;;;;;;5.20;4.80;;;2.80;99.90;;;;;;5020676;28;20457;-75
2021/04/07 01:45:48;;;;;;;5.23;4.73;;;2.80;99.90;;;;;;5020038;28;20438;-75
2021/04/07 01:48:16;;;;;;;4.83;4.43;;;2.80;99.90;;;;;;5020596;28;20505;-76
2021/04/07 01:50:43;;;;;;;5.13;4.73;;;2.80;99.90;;;;;;5018548;28;20457;-75
2021/04/07 01:53:19;;;;;;;6.17;4.60;;;2.80;99.90;;;;;;5019836;28;20459;-74
2021/04/07 01:55:45;;;;;;;5.73;4.70;;;2.90;99.90;;;;;;5018537;28;20476;-75
2021/04/07 01:58:12;;;;;;;5.53;5.00;;;2.90;99.90;;;;;;5020011;28;20439;-76
2021/04/07 02:00:39;;;;;;;9.40;5.20;;;2.90;99.90;;;;;;5018059;28;20515;-76
2021/04/07 02:03:05;;;;;;;6.20;5.57;;;2.90;99.90;;;;;;5021792;28;20438;-76
2021/04/07 02:05:32;;;;;;;4.63;4.23;;;2.90;99.90;;;;;;5016421;28;20896;-75
2021/04/07 02:07:58;;;;;;;5.77;5.27;;;2.80;99.90;;;;;;5022148;28;20470;-76
2021/04/07 02:10:24;;;;;;;5.40;4.90;;;2.70;99.90;;;;;;5018231;28;20492;-76
2021/04/07 02:12:51;;;;;;;5.23;4.63;;;2.70;99.90;;;;;;5019361;28;20907;-76
2021/04/07 02:15:17;;;;;;;5.20;4.70;;;2.70;99.90;;;;;;5021951;28;20203;-75
2021/04/07 02:17:45;;;;;;;4.53;4.13;;;2.80;99.90;;;;;;5017581;28;21069;-75
2021/04/07 02:20:12;;;;;;;5.17;4.67;;;2.70;99.90;;;;;;5018212;28;20210;-75
2021/04/07 02:22:38;;;;;;;6.60;4.53;;;2.70;99.90;;;;;;5014468;28;20482;-76
2021/04/07 02:25:05;;;;;;;6.60;4.33;;;2.80;99.90;;;;;;5022103;28;20435;-76
2021/04/07 02:27:31;;;;;;;5.00;4.33;;;2.70;99.90;;;;;;5018157;28;20200;-76
2021/04/07 02:29:57;;;;;;;7.10;5.00;;;2.70;99.90;;;;;;5020553;28;20454;-75
2021/04/07 02:32:25;;;;;;;5.10;4.03;;;2.70;99.90;;;;;;5020831;28;20452;-75
2021/04/07 02:34:51;;;;;;;4.87;4.37;;;2.60;99.90;;;;;;5018233;28;20309;-75
2021/04/07 02:37:18;;;;;;;4.53;4.20;;;2.70;99.90;;;;;;5019475;28;20474;-75
2021/04/07 02:39:45;;;;;;;4.77;4.27;;;2.70;99.90;;;;;;5018977;28;20463;-75
2021/04/07 02:42:11;;;;;;;4.73;4.23;;;2.70;99.90;;;;;;5016745;28;20430;-74
2021/04/07 02:44:38;;;;;;;5.30;4.57;;;2.70;99.90;;;;;;5018559;28;20438;-76
2021/04/07 02:47:05;;;;;;;7.80;4.13;;;2.80;99.90;;;;;;5019005;28;20526;-77
2021/04/07 02:49:31;;;;;;;5.73;4.10;;;2.80;99.90;;;;;;5019959;28;20441;-74
2021/04/07 02:51:57;;;;;;;10.27;3.83;;;2.70;99.90;;;;;;5021186;28;20525;-74
2021/04/07 02:54:23;;;;;;;4.90;4.40;;;2.70;99.90;;;;;;5019142;28;20590;-74
2021/04/07 02:56:49;;;;;;;5.43;4.40;;;2.70;99.90;;;;;;5017944;28;20630;-75
2021/04/07 02:59:17;;;;;;;4.87;4.40;;;2.70;99.90;;;;;;5019667;28;20686;-75
2021/04/07 03:01:43;;;;;;;5.67;4.63;;;2.70;99.90;;;;;;5016687;28;20445;-75
2021/04/07 03:04:09;;;;;;;4.33;3.97;;;2.70;99.90;;;;;;5019673;28;20437;-75
2021/04/07 03:06:34;;;;;;;5.10;4.57;;;2.60;99.90;;;;;;5018599;28;20238;-75
2021/04/07 03:09:01;;;;;;;4.40;4.00;;;2.50;99.90;;;;;;5020556;28;20201;-77
2021/04/07 03:11:27;;;;;;;4.90;4.30;;;2.50;99.90;;;;;;5020498;28;20718;-77
2021/04/07 03:13:53;;;;;;;4.40;4.10;;;2.60;99.90;;;;;;5016150;28;20466;-74
2021/04/07 03:16:18;;;;;;;8.10;4.80;;;2.50;99.90;;;;;;5018935;28;20466;-76
2021/04/07 03:18:44;;;;;;;4.70;4.30;;;2.50;99.90;;;;;;5018175;28;20180;-76
2021/04/07 03:21:10;;;;;;;4.63;4.23;;;2.50;99.90;;;;;;5018333;28;20220;-75
2021/04/07 03:23:35;;;;;;;4.70;4.30;;;2.50;99.90;;;;;;5018538;28;20197;-76
2021/04/07 03:26:01;;;;;;;6.50;4.17;;;2.40;99.90;;;;;;5017357;28;20195;-74
2021/04/07 03:28:27;;;;;;;4.97;4.20;;;2.50;99.90;;;;;;5017877;28;20201;-75
2021/04/07 03:30:52;;;;;;;5.07;4.60;;;2.40;99.90;;;;;;5017526;28;20226;-74
2021/04/07 03:33:23;;;;;;;5.50;4.80;;;2.40;99.90;;;;;;5020408;28;20211;-74
2021/04/07 03:35:51;;;;;;;5.00;4.50;;;2.30;99.90;;;;;;5017633;28;20201;-76
2021/04/07 03:38:20;;;;;;;5.10;4.60;;;2.40;99.90;;;;;;5018564;28;20453;-76
2021/04/07 03:40:46;;;;;;;6.17;5.33;;;2.50;99.90;;;;;;5018727;28;20730;-74
2021/04/07 03:43:14;;;;;;;7.73;4.77;;;2.40;99.90;;;;;;5018795;28;20452;-74
2021/04/07 03:45:49;;;;;;;7.40;5.23;;;2.50;99.90;;;;;;5019992;28;20442;-74
2021/04/07 03:48:17;;;;;;;5.70;5.20;;;2.40;99.90;;;;;;5019343;28;20450;-74
2021/04/07 03:50:43;;;;;;;5.30;4.00;;;2.40;99.90;;;;;;5019201;28;20997;-75
2021/04/07 03:53:10;;;;;;;4.63;4.30;;;2.50;99.90;;;;;;5020575;28;20536;-75
2021/04/07 03:55:36;;;;;;;5.13;4.73;;;2.40;99.90;;;;;;5016979;28;20441;-75
2021/04/07 03:58:02;;;;;;;5.87;5.00;;;2.50;99.90;;;;;;5019332;28;20435;-75
2021/04/07 04:00:28;;;;;;;9.03;5.20;;;2.40;99.90;;;;;;5017779;28;20444;-75
2021/04/07 04:02:54;;;;;;;7.10;4.63;;;2.50;99.90;;;;;;5018916;28;20442;-76
2021/04/07 04:05:20;;;;;;;6.10;4.93;;;2.40;99.90;;;;;;5019817;28;20472;-76
2021/04/07 04:07:45;;;;;;;5.00;4.33;;;2.50;99.90;;;;;;5017755;28;20212;-75
2021/04/07 04:10:12;;;;;;;4.73;4.27;;;2.40;99.90;;;;;;5017242;28;20805;-75
2021/04/07 04:12:38;;;;;;;4.97;4.53;;;2.40;99.90;;;;;;5015470;28;20199;-75
2021/04/07 04:15:06;;;;;;;6.57;4.50;;;2.50;99.90;;;;;;5019946;28;21049;-74
2021/04/07 04:17:31;;;;;;;5.80;4.30;;;2.50;99.90;;;;;;5021663;28;20290;-74
2021/04/07 04:19:57;;;;;;;6.23;4.83;;;2.50;99.90;;;;;;5023102;28;20595;-74
2021/04/07 04:22:22;;;;;;;4.97;4.57;;;2.50;99.90;;;;;;5019471;28;20293;-74
2021/04/07 04:24:48;;;;;;;4.47;4.07;;;2.50;99.90;;;;;;5021695;28;20643;-75
2021/04/07 04:27:14;;;;;;;6.80;4.90;;;2.40;99.90;;;;;;5022003;28;20200;-75
2021/04/07 04:29:39;;;;;;;4.83;4.43;;;2.40;99.90;;;;;;5019681;28;20226;-75
2021/04/07 04:32:07;;;;;;;5.53;5.03;;;2.40;99.90;;;;;;5020893;28;20192;-75
2021/04/07 04:34:33;;;;;;;4.90;4.50;;;2.40;99.90;;;;;;5020309;28;20183;-75
2021/04/07 04:36:58;;;;;;;5.70;5.20;;;2.30;99.90;;;;;;5018337;28;20485;-75
2021/04/07 04:39:24;;;;;;;6.10;4.60;;;2.40;99.90;;;;;;5019134;28;20988;-75
2021/04/07 04:41:50;;;;;;;7.13;5.03;;;2.40;99.90;;;;;;5020933;28;20199;-75
2021/04/07 04:44:15;;;;;;;6.13;4.67;;;2.40;99.90;;;;;;5023165;28;20188;-74
2021/04/07 04:46:41;;;;;;;6.33;5.50;;;2.40;99.90;;;;;;5023338;28;20181;-75
2021/04/07 04:49:06;;;;;;;4.60;4.27;;;2.40;99.90;;;;;;5021245;28;20284;-75
2021/04/07 04:51:32;;;;;;;5.43;4.93;;;2.50;99.90;;;;;;5023414;28;20775;-75
2021/04/07 04:53:58;;;;;;;6.50;4.83;;;2.50;99.90;;;;;;5022543;28;20194;-75
2021/04/07 04:56:23;;;;;;;7.47;5.57;;;2.50;99.90;;;;;;5020512;28;20217;-75
2021/04/07 04:58:49;;;;;;;5.10;4.60;;;2.50;99.90;;;;;;5023341;28;20176;-74
2021/04/07 05:01:14;;;;;;;8.73;4.70;;;2.50;99.90;;;;;;5022963;28;20206;-75
2021/04/07 05:03:40;;;;;;;5.27;4.70;;;2.50;99.90;;;;;;5022722;28;20562;-74
2021/04/07 05:06:06;;;;;;;5.53;4.23;;;2.50;99.90;;;;;;5023446;28;20195;-76
2021/04/07 05:08:31;;;;;;;5.47;4.80;;;2.40;99.90;;;;;;5027599;28;20568;-76
2021/04/07 05:10:57;;;;;;;6.70;4.87;;;2.40;99.90;;;;;;5023293;28;20308;-77
2021/04/07 05:13:26;;;;;;;4.87;4.37;;;2.40;99.90;;;;;;5024280;28;20612;-74
2021/04/07 05:15:51;;;;;;;4.50;4.10;;;2.50;99.90;;;;;;5025252;28;20205;-74
2021/04/07 05:18:18;;;;;;;5.33;4.83;;;2.50;99.90;;;;;;5022507;28;20438;-74
2021/04/07 05:20:44;;;;;;;5.30;3.80;;;2.50;99.90;;;;;;5024054;28;20224;-75
2021/04/07 05:23:10;;;;;;;4.53;4.13;;;2.30;99.90;;;;;;5024982;28;20432;-75
2021/04/07 05:25:36;;;;;;;7.20;4.93;;;2.30;99.90;;;;;;5022653;28;20188;-76
2021/04/07 05:28:06;;;;;;;5.80;4.27;;;2.30;99.90;;;;;;5025116;28;20493;-76
2021/04/07 05:31:18;;;;;;;8.57;5.43;;;2.30;99.90;;;;;;5023465;28;20447;-76
2021/04/07 05:33:19;;;;;;;5.10;4.10;;;2.30;99.90;;;;;;5018676;28;20469;-74
2021/04/07 05:35:45;;;;;;;5.80;4.57;;;2.30;99.90;;;;;;5021965;28;20430;-73
2021/04/07 05:38:11;;;;;;;4.83;4.00;;;2.30;99.90;;;;;;5027499;28;20444;-76
2021/04/07 05:40:37;;;;;;;6.67;4.70;;;2.40;99.90;;;;;;5023109;28;20335;-75
2021/04/07 05:43:03;;;;;;;5.87;4.77;;;2.50;99.90;;;;;;5020904;28;20197;-76
2021/04/07 05:45:29;;;;;;;5.43;4.80;;;2.40;99.90;;;;;;5021134;28;20326;-76
2021/04/07 05:47:55;;;;;;;7.50;4.23;;;2.40;99.90;;;;;;5020288;28;20523;-74
2021/04/07 05:50:21;;;;;;;4.13;3.83;;;2.30;99.90;;;;;;5022761;28;20552;-74
2021/04/07 05:52:50;;;;;;;4.87;4.47;;;2.30;99.90;;;;;;5022137;28;20196;-75
2021/04/07 05:55:17;;;;;;;4.50;4.10;;;2.30;99.90;;;;;;5023466;28;20771;-74
2021/04/07 05:57:42;;;;;;;10.20;4.00;;;2.30;99.90;;;;;;5017136;28;20468;-75
2021/04/07 06:00:09;;;;;;;5.80;4.80;;;2.30;99.90;;;;;;5022912;28;20841;-75
2021/04/07 06:02:35;;;;;;;4.77;4.37;;;2.20;99.90;;;;;;5022208;28;20177;-75
2021/04/07 06:05:00;;;;;;;8.87;4.20;;;2.30;99.90;;;;;;5022852;28;20540;-74
2021/04/07 06:07:29;;;;;;;4.60;4.20;;;2.20;99.90;;;;;;5019831;28;20199;-75
2021/04/07 06:09:54;;;;;;;5.07;4.60;;;2.20;99.90;;;;;;5018822;28;20214;-75
2021/04/07 06:12:20;;;;;;;10.07;4.93;;;2.20;99.90;;;;;;5019132;28;20940;-75
2021/04/07 06:14:46;;;;;;;4.13;3.83;;;2.20;99.90;;;;;;5020167;28;20194;-76
2021/04/07 06:17:11;;;;;;;9.37;4.10;;;2.30;99.90;;;;;;5017449;28;20208;-76
2021/04/07 06:19:37;;;;;;;9.03;4.67;;;2.40;99.90;;;;;;5016562;28;20203;-76
2021/04/07 06:22:02;;;;;;;4.97;4.40;;;2.50;99.90;;;;;;5018240;28;20735;-76
2021/04/07 06:24:28;;;;;;;4.70;4.30;;;2.60;99.90;;;;;;5017123;28;20196;-77
2021/04/07 06:26:54;;;;;;;4.47;3.90;;;2.50;99.90;;;;;;5020164;28;20229;-77
2021/04/07 06:29:19;;;;;;;4.57;4.07;;;2.40;99.90;;;;;;5017063;28;20269;-76
2021/04/07 06:31:45;;;;;;;6.00;4.23;;;2.50;99.90;;;;;;5017367;28;20299;-76
2021/04/07 06:34:10;;;;;;;5.00;4.53;;;2.60;99.90;;;;;;5016874;28;20192;-75
2021/04/07 06:36:36;;;;;;;7.90;4.60;;;2.80;99.90;;;;;;5012126;28;20222;-76
2021/04/07 06:39:02;;;;;;;4.83;4.40;;;2.80;99.90;;;;;;5015503;28;20431;-75
2021/04/07 06:41:30;;;;;;;5.63;4.07;;;2.90;99.90;;;;;;5018369;28;20221;-75
2021/04/07 06:43:57;;;;;;;4.63;3.97;;;2.90;99.90;;;;;;5019624;28;20431;-76
2021/04/07 06:46:24;;;;;;;4.30;3.90;;;3.00;99.90;;;;;;5016236;28;20503;-75
2021/04/07 06:48:52;;;;;;;6.83;4.70;;;2.90;99.90;;;;;;5017784;28;20473;-74
2021/04/07 06:51:20;;;;;;;4.20;3.63;;;2.90;99.90;;;;;;5019386;28;20825;-75
2021/04/07 06:53:51;;;;;;;4.27;3.87;;;3.10;99.90;;;;;;5015616;28;20482;-76
2021/04/07 06:56:18;;;;;;;4.40;4.00;;;2.90;99.90;;;;;;5012738;28;20548;-75
2021/04/07 06:58:44;;;;;;;7.80;6.93;;;3.00;99.90;;;;;;5017314;28;21125;-76
2021/04/07 07:01:11;;;;;;;4.27;3.80;;;3.00;99.90;;;;;;5016423;28;20857;-75
2021/04/07 07:03:36;;;;;;;4.27;3.80;;;3.10;99.90;;;;;;5016065;28;20492;-77
2021/04/07 07:06:02;;;;;;;3.87;3.57;;;3.20;99.90;;;;;;5016138;28;20440;-75
2021/04/07 07:08:31;;;;;;;4.37;3.97;;;3.20;99.90;;;;;;5019246;28;20196;-75
2021/04/07 07:11:08;;;;;;;9.27;3.80;;;3.30;99.90;;;;;;5018370;28;20565;-75
2021/04/07 07:13:34;;;;;;;5.23;4.70;;;3.30;99.90;;;;;;5019989;28;20514;-75
2021/04/07 07:16:00;;;;;;;4.80;4.03;;;3.10;99.90;;;;;;5019541;28;20497;-75
2021/04/07 07:18:29;;;;;;;11.33;3.63;;;3.10;99.90;;;;;;5017791;28;20486;-75
2021/04/07 07:20:56;;;;;;;10.20;4.90;;;3.10;99.90;;;;;;5015217;28;20212;-75
2021/04/07 07:23:27;;;;;;;6.20;3.90;;;3.10;99.90;;;;;;5018661;28;20477;-75
2021/04/07 07:26:14;;;;;;;3.77;3.47;;;3.10;99.90;;;;;;5019265;28;21027;-75
2021/04/07 07:28:55;;;;;;;7.43;5.50;;;3.10;99.90;;;;;;5013951;28;20922;-75
2021/04/07 07:31:29;;;;;;;4.47;4.17;;;3.00;99.90;;;;;;5016539;28;21179;-75
2021/04/07 07:33:59;;;;;;;4.37;3.97;;;3.00;99.90;;;;;;5017152;28;20437;-75
2021/04/07 07:36:26;;;;;;;6.50;4.33;;;3.00;99.90;;;;;;5013787;28;20517;-74
2021/04/07 07:38:58;;;;;;;5.50;4.63;;;3.00;99.90;;;;;;5018907;28;20549;-75
2021/04/07 07:41:27;;;;;;;6.60;4.63;;;3.00;99.90;;;;;;5018715;28;20438;-74
2021/04/07 07:43:54;;;;;;;5.10;4.60;;;3.20;99.90;;;;;;5017573;28;20446;-75
2021/04/07 07:46:23;;;;;;;6.57;4.63;;;3.30;99.90;;;;;;5013801;28;20472;-76
2021/04/07 07:48:49;;;;;;;5.13;4.63;;;3.40;99.90;;;;;;5015932;28;20537;-75
2021/04/07 07:51:23;;;;;;;5.43;4.93;;;3.40;99.90;;;;;;5023806;28;20607;-75
2021/04/07 07:53:51;;;;;;;7.00;4.40;;;3.30;99.90;;;;;;5003241;28;20192;-75
2021/04/07 07:56:19;;;;;;;5.53;4.50;;;3.40;99.90;;;;;;5018768;28;20516;-75
2021/04/07 07:58:50;;;;;;;6.03;4.93;;;3.30;99.90;;;;;;5021129;28;20466;-75
2021/04/07 08:01:17;;;;;;;5.47;5.00;;;3.30;99.90;;;;;;5020201;28;20439;-75
2021/04/07 08:03:44;;;;;;;5.80;5.30;;;3.30;99.90;;;;;;5022874;28;20426;-75
2021/04/07 08:06:11;;;;;;;6.70;6.07;;;3.40;99.90;;;;;;5017789;28;20469;-76
2021/04/07 08:08:37;;;;;;;10.00;4.93;;;3.50;99.90;;;;;;5020548;28;20488;-75
2021/04/07 08:11:04;;;;;;;5.00;4.40;;;3.40;99.90;;;;;;5020468;28;20537;-74
2021/04/07 08:13:38;;;;;;;7.40;5.20;;;3.40;99.90;;;;;;5020319;28;20939;-75
2021/04/07 08:16:06;;;;;;;6.57;5.33;;;3.40;99.90;;;;;;5019895;28;20574;-75
2021/04/07 08:18:35;;;;;;;5.87;5.27;;;3.40;99.90;;;;;;5021264;28;20522;-75
2021/04/07 08:21:02;;;;;;;6.40;5.83;;;3.30;99.90;;;;;;5018697;28;20470;-74
2021/04/07 08:23:30;;;;;;;5.70;4.97;;;3.20;99.90;;;;;;5020779;28;20524;-75
2021/04/07 08:25:58;;;;;;;8.07;5.00;;;3.20;99.90;;;;;;5020349;28;20827;-75
2021/04/07 08:28:25;;;;;;;5.13;4.73;;;3.30;99.90;;;;;;5018291;28;20443;-74
2021/04/07 08:30:51;;;;;;;10.13;5.90;;;3.20;99.90;;;;;;5022957;28;20553;-75
2021/04/07 08:33:20;;;;;;;9.60;5.60;;;3.30;99.90;;;;;;5022098;28;20525;-74
2021/04/07 08:35:50;;;;;;;6.33;5.40;;;3.40;99.90;;;;;;5019291;28;20442;-75
2021/04/07 08:38:16;;;;;;;11.10;5.63;;;3.60;99.90;;;;;;5023187;28;20426;-75
2021/04/07 08:40:47;;;;;;;5.40;5.00;;;3.70;99.90;;;;;;5019545;28;21115;-78
2021/04/07 08:43:14;;;;;;;5.63;4.93;;;3.80;99.90;;;;;;5016824;28;20439;-75
2021/04/07 08:45:48;;;;;;;10.73;5.57;;;3.90;99.90;;;;;;5018621;28;20449;-75
2021/04/07 08:48:20;;;;;;;9.00;4.93;;;4.00;99.90;;;;;;5017747;28;20443;-76
2021/04/07 08:50:47;;;;;;;7.27;6.00;;;4.10;99.90;;;;;;5017506;28;21018;-75
2021/04/07 08:53:16;;;;;;;5.83;5.27;;;4.10;99.90;;;;;;5019383;28;20464;-74
2021/04/07 08:55:54;;;;;;;6.03;5.00;;;3.90;99.90;;;;;;5018900;28;20429;-75
2021/04/07 08:58:26;;;;;;;4.90;4.50;;;3.80;99.90;;;;;;5017648;28;20542;-76
2021/04/07 09:00:56;;;;;;;4.97;4.57;;;3.90;99.90;;;;;;5019896;28;20451;-76
2021/04/07 09:03:31;;;;;;;4.70;4.30;;;3.90;99.90;;;;;;5018754;28;21005;-75
2021/04/07 09:05:57;;;;;;;8.30;4.57;;;4.10;99.90;;;;;;5001691;28;20445;-75
2021/04/07 09:08:25;;;;;;;5.90;5.40;;;4.30;99.90;;;;;;5018290;28;20429;-74
2021/04/07 09:10:53;;;;;;;6.40;5.10;;;4.30;99.90;;;;;;5016086;28;20469;-76
2021/04/07 09:13:30;;;;;;;15.43;6.10;;;4.30;99.90;;;;;;5018538;28;20716;-75
2021/04/07 09:16:02;;;;;;;6.47;4.60;;;4.20;99.90;;;;;;5010151;28;20446;-74
2021/04/07 09:18:39;;;;;;;5.33;4.83;;;4.20;99.90;;;;;;5013853;28;21229;-75
2021/04/07 09:21:07;;;;;;;5.30;4.80;;;4.20;99.90;;;;;;5013690;28;21031;-75
2021/04/07 09:23:37;;;;;;;6.07;4.70;;;4.10;99.90;;;;;;5012751;28;20953;-75
2021/04/07 09:26:10;;;;;;;7.90;4.77;;;4.10;99.90;;;;;;5015209;28;20454;-75
2021/04/07 09:28:37;;;;;;;5.97;4.80;;;4.10;99.90;;;;;;5014310;28;20469;-74
2021/04/07 09:31:06;;;;;;;7.30;4.90;;;3.90;99.90;;;;;;5013409;28;20477;-74
2021/04/07 09:33:37;;;;;;;4.73;4.23;;;3.80;99.90;;;;;;5011129;28;20435;-74
2021/04/07 09:36:03;;;;;;;5.50;4.07;;;3.80;99.90;;;;;;5014581;28;20446;-75
2021/04/07 09:38:31;;;;;;;4.50;4.20;;;3.80;99.90;;;;;;5012280;28;20440;-74
2021/04/07 09:41:11;;;;;;;4.90;4.50;;;3.80;99.90;;;;;;5016197;28;20467;-74
2021/04/07 09:43:37;;;;;;;4.37;4.07;;;3.70;99.90;;;;;;5015723;28;20861;-75
2021/04/07 09:46:04;;;;;;;6.03;4.60;;;3.60;99.90;;;;;;5016769;28;20431;-75
2021/04/07 09:48:40;;;;;;;5.43;4.73;;;3.60;99.90;;;;;;5017352;28;20438;-74
2021/04/07 09:51:26;;;;;;;5.57;4.97;;;3.80;99.90;;;;;;5010801;28;20854;-74
2021/04/07 09:53:53;;;;;;;5.37;4.87;;;4.00;99.90;;;;;;5015838;28;21210;-74
2021/04/07 09:56:18;;;;;;;6.30;4.87;;;4.00;99.90;;;;;;5013929;28;20566;-74
2021/04/07 09:58:50;;;;;;;5.57;5.07;;;4.20;99.90;;;;;;5013451;28;20462;-75
2021/04/07 10:01:17;;;;;;;7.13;5.20;;;4.20;99.90;;;;;;5027148;28;20299;-75
2021/04/07 10:03:51;;;;;;;12.13;5.17;;;4.20;99.90;;;;;;4999462;28;20505;-75
2021/04/07 10:06:17;;;;;;;7.63;4.70;;;4.20;99.90;;;;;;5017950;28;20439;-75
2021/04/07 10:08:43;;;;;;;5.23;4.80;;;4.20;99.90;;;;;;5014007;28;20543;-75
2021/04/07 10:11:09;;;;;;;5.93;5.23;;;4.20;99.90;;;;;;5015657;28;20546;-74
2021/04/07 10:13:35;;;;;;;5.53;4.97;;;4.20;99.90;;;;;;5015273;28;20273;-74
2021/04/07 10:16:12;;;;;;;6.30;5.00;;;4.10;99.90;;;;;;5016172;28;20189;-76
2021/04/07 10:18:38;;;;;;;6.13;5.40;;;4.20;99.90;;;;;;5014314;28;20949;-74
2021/04/07 10:21:20;;;;;;;7.73;4.90;;;4.40;99.90;;;;;;5014979;28;20455;-76
2021/04/07 10:23:47;;;;;;;10.23;4.50;;;4.70;99.90;;;;;;5015873;28;20559;-76
2021/04/07 10:26:16;;;;;;;7.47;5.00;;;4.80;99.90;;;;;;5009858;28;20455;-74
2021/04/07 10:28:54;;;;;;;5.70;4.10;;;4.80;99.90;;;;;;5015163;28;20423;-72
2021/04/07 10:31:20;;;;;;;8.07;4.87;;;4.90;99.90;;;;;;5015037;28;20473;-75
2021/04/07 10:33:46;;;;;;;6.33;4.60;;;5.30;99.90;;;;;;5017187;28;20451;-75
2021/04/07 10:36:12;;;;;;;6.67;4.83;;;5.70;99.90;;;;;;5013355;28;20230;-74
2021/04/07 10:38:38;;;;;;;8.23;4.40;;;5.90;99.90;;;;;;5013800;28;20196;-75
2021/04/07 10:41:05;;;;;;;4.90;4.40;;;6.70;99.90;;;;;;5011840;28;20216;-75
2021/04/07 10:43:39;;;;;;;6.33;4.80;;;6.70;99.90;;;;;;5010798;28;20435;-75
2021/04/07 10:46:07;;;;;;;5.67;3.90;;;6.40;99.90;;;;;;5016050;28;21189;-74
2021/04/07 10:48:34;;;;;;;12.70;5.27;;;6.50;99.90;;;;;;5014104;28;21316;-75
2021/04/07 10:51:00;;;;;;;6.33;3.73;;;6.40;99.90;;;;;;5019973;28;20558;-74
2021/04/07 10:53:31;;;;;;;4.57;4.20;;;6.20;99.90;;;;;;5017602;28;20515;-75
2021/04/07 10:55:59;;;;;;;4.93;4.43;;;5.90;99.90;;;;;;5018915;28;20459;-74
2021/04/07 10:58:26;;;;;;;6.43;4.63;;;5.70;99.90;;;;;;5019764;28;21011;-75
2021/04/07 11:00:52;;;;;;;5.80;4.50;;;5.60;99.90;;;;;;5016093;28;20454;-74
2021/04/07 11:03:29;;;;;;;7.30;4.73;;;5.50;99.90;;;;;;5021079;28;20453;-74
2021/04/07 11:05:55;;;;;;;6.80;4.40;;;5.30;99.90;;;;;;5021133;28;20188;-77
2021/04/07 11:08:20;;;;;;;6.30;4.50;;;5.20;99.90;;;;;;5023441;28;20564;-74
2021/04/07 11:10:48;;;;;;;6.63;4.00;;;5.30;99.90;;;;;;5019076;28;20235;-74
2021/04/07 11:13:16;;;;;;;4.73;4.13;;;5.20;99.90;;;;;;5021463;28;20210;-74
2021/04/07 11:15:42;;;;;;;6.37;4.20;;;5.20;99.90;;;;;;5023854;28;20600;-76
2021/04/07 11:18:08;;;;;;;4.90;3.70;;;5.20;99.90;;;;;;5020903;28;20922;-75
2021/04/07 11:20:36;;;;;;;6.27;4.27;;;5.20;99.90;;;;;;5021272;28;20501;-74
2021/04/07 11:23:02;;;;;;;11.63;4.40;;;5.10;99.90;;;;;;5020523;28;20872;-74
2021/04/07 11:25:28;;;;;;;8.60;3.90;;;5.10;99.90;;;;;;5001043;28;20458;-74
2021/04/07 11:27:57;;;;;;;4.03;3.67;;;5.10;99.90;;;;;;5017119;28;20423;-74
2021/04/07 11:30:24;;;;;;;4.40;4.00;;;5.00;99.90;;;;;;5018637;28;20463;-74
2021/04/07 11:32:52;;;;;;;4.33;3.93;;;5.10;99.90;;;;;;5022341;28;20526;-73
2021/04/07 11:35:26;;;;;;;4.47;4.07;;;5.10;99.90;;;;;;5015293;28;20435;-74
2021/04/07 11:37:55;;;;;;;3.93;3.73;;;5.20;99.90;;;;;;5019671;28;20562;-75
2021/04/07 11:45:29;;;;;;;4.80;4.30;;;5.20;99.90;;;;;;5016480;28;20432;-74
2021/04/07 11:47:55;;;;;;;4.83;4.33;;;5.20;99.90;;;;;;5017139;28;20447;-75
2021/04/07 11:50:21;;;;;;;3.50;3.10;;;5.10;99.90;;;;;;5017622;28;20212;-74
2021/04/07 11:52:47;;;;;;;3.87;3.57;;;5.10;99.90;;;;;;5015871;28;20209;-76
2021/04/07 11:55:13;;;;;;;6.53;4.27;;;5.10;99.90;;;;;;5028890;28;20260;-75
2021/04/07 11:57:39;;;;;;;7.20;3.80;;;5.00;99.90;;;;;;5028188;28;20505;-73
2021/04/07 12:00:07;;;;;;;6.20;4.60;;;4.90;99.90;;;;;;5021041;28;20901;-74
2021/04/07 12:02:34;;;;;;;11.80;4.40;;;4.90;99.90;;;;;;5012070;28;20268;-75
2021/04/07 12:05:01;;;;;;;8.70;3.87;;;4.90;99.90;;;;;;5016207;28;20501;-75
2021/04/07 12:07:26;;;;;;;5.07;4.53;;;4.80;99.90;;;;;;5018225;28;20945;-76
2021/04/07 12:09:52;;;;;;;4.70;4.20;;;4.70;99.90;;;;;;5014388;28;20506;-74
2021/04/07 12:12:18;;;;;;;10.53;4.30;;;4.60;99.90;;;;;;5015020;28;20215;-73
2021/04/07 12:14:43;;;;;;;5.13;3.83;;;4.50;99.90;;;;;;5017786;28;20653;-73
2021/04/07 12:17:09;;;;;;;8.47;4.73;;;4.50;99.90;;;;;;5017868;28;20224;-75
2021/04/07 12:19:35;;;;;;;5.63;4.60;;;4.50;99.90;;;;;;5011620;28;20284;-75
2021/04/07 12:22:01;;;;;;;4.77;4.37;;;4.40;99.90;;;;;;4997964;28;20201;-75
2021/04/07 12:24:28;;;;;;;5.33;4.33;;;4.40;99.90;;;;;;5017295;28;20823;-74
2021/04/07 12:26:54;;;;;;;4.53;3.83;;;4.40;99.90;;;;;;5014497;28;20458;-75
2021/04/07 12:29:20;;;;;;;5.50;4.00;;;4.40;99.90;;;;;;5014664;28;20440;-73
2021/04/07 12:31:45;;;;;;;7.17;4.70;;;4.40;99.90;;;;;;5014313;28;21164;-75
2021/04/07 12:34:12;;;;;;;4.17;3.80;;;4.40;99.90;;;;;;5016575;28;20848;-75
2021/04/07 12:36:37;;;;;;;5.70;4.20;;;4.40;99.90;;;;;;5016747;28;20216;-75
2021/04/07 12:39:04;;;;;;;5.20;4.43;;;4.40;99.90;;;;;;5015928;28;21128;-73
2021/04/07 12:41:34;;;;;;;9.60;4.83;;;4.40;99.90;;;;;;5019435;28;20268;-75
2021/04/07 12:44:00;;;;;;;4.97;4.17;;;4.30;99.90;;;;;;5020780;28;20423;-74
2021/04/07 12:46:26;;;;;;;4.10;3.70;;;4.30;99.90;;;;;;5017184;28;20438;-74
2021/04/07 12:48:52;;;;;;;6.93;4.17;;;4.30;99.90;;;;;;5019140;28;20439;-74
2021/04/07 12:51:19;;;;;;;8.67;4.47;;;4.10;99.90;;;;;;5020872;28;20475;-74
2021/04/07 12:56:43;;;;;;;4.77;4.33;;;4.00;99.90;;;;;;5020194;28;20548;-74
2021/04/07 12:59:10;;;;;;;6.70;4.73;;;4.10;99.90;;;;;;5018206;28;20477;-74
2021/04/07 13:01:37;;;;;;;8.20;4.47;;;4.00;99.90;;;;;;5015522;28;20466;-75
2021/04/07 13:04:03;;;;;;;7.40;4.43;;;4.10;99.90;;;;;;5017057;28;20842;-74